Time;durP1;ratioP1;P1;durP2;ratioP2;P2;SDS_P1;SDS_P2;PMS_P1;PMS_P2;Temp;Humidity;BMP_temperature;BMP_pressure;BME280_temperature;BME280_humidity;BME280_pressure;Samples;Min_cycle;Max_cycle;Signal;HPM_P1;HPM_P2
2024/03/22 00:01:48;;;;;;;76.70;39.15;;;13.60;99.90;;;;;;5027032;28;20062;-76
2024/03/22 00:04:14;;;;;;;79.50;39.90;;;13.70;99.90;;;;;;5028409;28;20144;-76
2024/03/22 00:06:46;;;;;;;73.28;38.60;;;13.70;99.90;;;;;;5028202;28;20033;-76
2024/03/22 00:09:12;;;;;;;78.93;37.43;;;13.70;99.90;;;;;;5026797;28;20083;-76
2024/03/22 00:11:42;;;;;;;69.93;37.72;;;13.60;99.90;;;;;;5030484;28;20647;-76
2024/03/22 00:14:10;;;;;;;81.05;38.22;;;13.70;99.90;;;;;;5014767;28;20111;-76
2024/03/22 00:16:38;;;;;;;74.15;38.83;;;13.70;99.90;;;;;;5032354;28;20029;-76
2024/03/22 00:19:05;;;;;;;81.13;38.88;;;13.70;99.90;;;;;;5033338;28;20018;-75
2024/03/22 00:21:32;;;;;;;79.97;39.80;;;13.70;99.90;;;;;;5033796;28;20049;-75
2024/03/22 00:24:01;;;;;;;82.55;40.03;;;13.70;99.90;;;;;;5032427;28;20029;-76
2024/03/22 00:26:29;;;;;;;78.70;41.30;;;13.70;99.90;;;;;;5034029;28;20018;-76
2024/03/22 00:28:58;;;;;;;73.35;38.00;;;13.70;99.90;;;;;;5033493;28;20036;-75
2024/03/22 00:31:25;;;;;;;74.43;37.40;;;13.70;99.90;;;;;;5016052;28;20091;-75
2024/03/22 00:33:53;;;;;;;82.78;40.35;;;13.70;99.90;;;;;;5034105;28;20026;-77
2024/03/22 00:36:18;;;;;;;78.00;41.47;;;13.70;99.90;;;;;;5033645;28;20461;-75
2024/03/22 00:38:46;;;;;;;78.40;40.05;;;13.70;99.90;;;;;;5033836;28;20597;-75
2024/03/22 00:41:12;;;;;;;80.22;42.38;;;13.70;99.90;;;;;;5033068;28;20068;-75
2024/03/22 00:43:40;;;;;;;75.38;39.35;;;13.70;99.90;;;;;;5030357;28;20038;-74
2024/03/22 00:46:07;;;;;;;79.70;42.13;;;13.60;99.90;;;;;;5023906;28;20478;-75
2024/03/22 00:48:36;;;;;;;96.18;58.10;;;13.60;99.90;;;;;;5033978;28;20021;-77
2024/03/22 00:51:05;;;;;;;74.07;39.97;;;13.70;99.90;;;;;;5033998;28;20044;-75
2024/03/22 00:53:31;;;;;;;77.38;41.40;;;13.80;99.90;;;;;;5039348;28;20065;-75
2024/03/22 00:55:59;;;;;;;83.95;42.80;;;13.80;99.90;;;;;;5033405;28;20029;-75
2024/03/22 00:58:26;;;;;;;78.30;42.53;;;13.80;99.90;;;;;;5032729;28;20029;-76
2024/03/22 01:00:54;;;;;;;70.95;38.58;;;13.80;99.90;;;;;;5011701;28;20030;-77
2024/03/22 01:03:24;;;;;;;80.05;41.30;;;13.80;99.90;;;;;;5032441;28;20394;-76
2024/03/22 01:05:52;;;;;;;73.43;41.20;;;13.80;99.90;;;;;;5030997;28;20025;-77
2024/03/22 01:08:21;;;;;;;80.78;40.78;;;13.70;99.90;;;;;;5031091;28;20045;-76
2024/03/22 01:10:48;;;;;;;82.47;43.45;;;13.80;99.90;;;;;;5034258;28;20475;-76
2024/03/22 01:13:21;;;;;;;76.20;40.10;;;13.80;99.90;;;;;;5036148;28;20116;-77
2024/03/22 01:15:48;;;;;;;81.50;41.33;;;13.80;99.90;;;;;;5030662;28;20025;-77
2024/03/22 01:18:15;;;;;;;77.95;40.08;;;13.80;99.90;;;;;;5031210;28;20033;-77
2024/03/22 01:20:42;;;;;;;81.88;42.00;;;13.90;99.90;;;;;;5039080;28;20076;-76
2024/03/22 01:23:08;;;;;;;78.60;40.40;;;13.90;99.90;;;;;;5035989;28;20041;-76
2024/03/22 01:25:35;;;;;;;80.72;39.50;;;13.80;99.90;;;;;;5033593;28;20441;-77
2024/03/22 01:28:01;;;;;;;77.25;40.50;;;13.80;99.90;;;;;;5031977;28;20030;-76
2024/03/22 01:30:29;;;;;;;69.28;38.33;;;13.80;99.90;;;;;;5013937;28;20124;-77
2024/03/22 01:32:58;;;;;;;73.20;39.25;;;13.80;99.90;;;;;;5033177;28;20137;-77
2024/03/22 01:35:25;;;;;;;74.95;41.47;;;13.90;99.90;;;;;;5036377;28;20037;-76
2024/03/22 01:37:55;;;;;;;77.63;42.17;;;13.80;99.90;;;;;;5018180;28;20363;-77
2024/03/22 01:40:21;;;;;;;78.32;40.70;;;13.80;99.90;;;;;;5042134;28;20037;-75
2024/03/22 01:42:48;;;;;;;79.57;42.08;;;13.90;99.90;;;;;;5033676;28;20014;-76
2024/03/22 01:45:16;;;;;;;72.63;39.63;;;13.90;99.90;;;;;;5034319;28;20028;-75
2024/03/22 01:47:45;;;;;;;73.85;39.88;;;13.90;99.90;;;;;;5032804;28;20040;-76
2024/03/22 01:50:12;;;;;;;70.95;38.92;;;13.90;99.90;;;;;;5038656;28;20020;-76
2024/03/22 01:52:40;;;;;;;83.28;43.95;;;13.80;99.90;;;;;;5034597;28;20152;-76
2024/03/22 01:55:08;;;;;;;76.28;41.10;;;13.80;99.90;;;;;;5032329;28;20087;-75
2024/03/22 01:57:41;;;;;;;72.65;41.00;;;13.80;99.90;;;;;;5021149;28;20036;-76
2024/03/22 02:00:10;;;;;;;76.68;40.30;;;13.80;99.90;;;;;;5031212;28;20025;-77
2024/03/22 02:02:36;;;;;;;79.05;41.17;;;13.90;99.90;;;;;;5024060;28;20029;-76
2024/03/22 02:05:15;;;;;;;73.22;39.00;;;13.90;99.90;;;;;;5030898;28;20022;-77
2024/03/22 02:07:42;;;;;;;77.05;39.40;;;13.80;99.90;;;;;;5031473;28;20048;-77
2024/03/22 02:10:10;;;;;;;70.82;41.17;;;13.90;99.90;;;;;;5032030;28;20026;-76
2024/03/22 02:12:37;;;;;;;81.40;41.50;;;13.80;99.90;;;;;;5030705;28;20026;-77
2024/03/22 02:15:03;;;;;;;72.13;41.70;;;13.80;99.90;;;;;;5031581;28;20021;-77
2024/03/22 02:17:29;;;;;;;78.03;41.63;;;13.80;99.90;;;;;;5031560;28;20052;-77
2024/03/22 02:19:54;;;;;;;83.65;43.67;;;13.80;99.90;;;;;;5030122;28;20060;-76
2024/03/22 02:22:20;;;;;;;77.47;40.83;;;13.80;99.90;;;;;;5032011;28;20037;-76
2024/03/22 02:24:46;;;;;;;69.82;38.70;;;13.80;99.90;;;;;;5031600;28;20480;-77
2024/03/22 02:27:11;;;;;;;74.28;38.40;;;13.70;99.90;;;;;;5031373;28;20470;-76
2024/03/22 02:29:37;;;;;;;80.40;40.35;;;13.70;99.90;;;;;;5031123;28;20030;-78
2024/03/22 02:32:03;;;;;;;70.07;38.67;;;13.70;99.90;;;;;;5031283;28;20393;-77
2024/03/22 02:34:29;;;;;;;75.97;40.03;;;13.70;99.90;;;;;;5031960;28;20022;-77
2024/03/22 02:36:55;;;;;;;66.13;36.03;;;13.70;99.90;;;;;;5031467;28;20040;-77
2024/03/22 02:39:20;;;;;;;56.53;33.65;;;13.70;99.90;;;;;;5031137;28;20359;-77
2024/03/22 02:41:46;;;;;;;67.45;36.08;;;13.60;99.90;;;;;;5031163;28;20021;-77
2024/03/22 02:44:11;;;;;;;66.32;37.95;;;13.60;99.90;;;;;;5031481;28;20371;-77
2024/03/22 02:46:37;;;;;;;65.95;40.00;;;13.60;99.90;;;;;;5030740;28;20496;-77
2024/03/22 02:49:03;;;;;;;66.70;37.20;;;13.50;99.90;;;;;;5031378;28;20425;-75
2024/03/22 02:51:28;;;;;;;60.72;36.17;;;13.50;99.90;;;;;;5034988;28;20112;-76
2024/03/22 02:53:54;;;;;;;65.15;37.70;;;13.50;99.90;;;;;;5031388;28;20454;-77
2024/03/22 02:56:20;;;;;;;62.45;35.08;;;13.50;99.90;;;;;;5042274;28;20112;-77
2024/03/22 02:58:46;;;;;;;58.20;33.38;;;13.50;99.90;;;;;;5035389;28;20044;-76
2024/03/22 03:01:11;;;;;;;56.45;34.28;;;13.50;99.90;;;;;;5029817;28;20080;-76
2024/03/22 03:03:37;;;;;;;68.25;36.63;;;13.40;99.90;;;;;;5031303;28;20030;-77
2024/03/22 03:06:03;;;;;;;65.90;35.72;;;13.50;99.90;;;;;;5026114;28;20024;-79
2024/03/22 03:08:28;;;;;;;57.60;35.05;;;13.50;99.90;;;;;;5028977;28;20382;-80
2024/03/22 03:10:54;;;;;;;65.47;36.30;;;13.50;99.90;;;;;;5029525;28;20017;-80
2024/03/22 03:13:20;;;;;;;59.65;34.08;;;13.50;99.90;;;;;;5029512;28;20041;-80
2024/03/22 03:15:45;;;;;;;55.45;31.42;;;13.50;99.90;;;;;;5029225;28;20065;-77
2024/03/22 03:18:11;;;;;;;63.10;34.70;;;13.50;99.90;;;;;;5024809;28;20586;-77
2024/03/22 03:20:37;;;;;;;61.85;33.85;;;13.40;99.90;;;;;;5028233;28;20021;-76
2024/03/22 03:23:03;;;;;;;56.65;33.67;;;13.40;99.90;;;;;;5027727;28;20021;-77
2024/03/22 03:25:29;;;;;;;58.28;32.60;;;13.40;99.90;;;;;;5029515;28;20029;-76
2024/03/22 03:27:55;;;;;;;60.25;35.17;;;13.40;99.90;;;;;;5028204;28;20033;-75
2024/03/22 03:30:20;;;;;;;56.35;31.05;;;13.40;99.90;;;;;;5029134;28;21444;-76
2024/03/22 03:32:46;;;;;;;59.35;33.88;;;13.40;99.90;;;;;;5028317;28;20187;-77
2024/03/22 03:35:12;;;;;;;60.30;33.65;;;13.30;99.90;;;;;;5029714;28;20562;-77
2024/03/22 03:37:37;;;;;;;54.03;30.00;;;13.40;99.90;;;;;;5027058;28;20091;-77
2024/03/22 03:40:04;;;;;;;48.63;28.95;;;13.40;99.90;;;;;;5026006;28;20509;-75
2024/03/22 03:42:30;;;;;;;55.80;30.58;;;13.30;99.90;;;;;;5026939;28;20535;-75
2024/03/22 03:44:55;;;;;;;52.83;30.42;;;13.30;99.90;;;;;;5027767;28;20029;-77
2024/03/22 03:47:21;;;;;;;56.80;31.27;;;13.30;99.90;;;;;;5028502;28;20041;-77
2024/03/22 03:49:47;;;;;;;52.28;30.10;;;13.30;99.90;;;;;;5028983;28;20083;-76
2024/03/22 03:52:13;;;;;;;56.00;30.55;;;13.30;99.90;;;;;;5028171;28;20033;-76
2024/03/22 03:54:39;;;;;;;54.97;34.50;;;13.30;99.90;;;;;;5028793;28;20017;-76
2024/03/22 03:57:05;;;;;;;59.90;34.28;;;13.20;99.90;;;;;;5028099;28;20064;-76
2024/03/22 03:59:31;;;;;;;52.63;32.50;;;13.30;99.90;;;;;;5026331;28;20025;-77
2024/03/22 04:01:57;;;;;;;52.83;32.10;;;13.20;99.90;;;;;;5027891;28;20076;-75
2024/03/22 04:04:22;;;;;;;53.33;30.27;;;13.20;99.90;;;;;;5028975;28;20026;-76
2024/03/22 04:06:48;;;;;;;51.53;29.55;;;13.20;99.90;;;;;;5028728;28;20044;-75
2024/03/22 04:09:14;;;;;;;54.83;29.77;;;13.30;99.90;;;;;;5026940;28;20029;-75
2024/03/22 04:11:39;;;;;;;59.72;33.60;;;13.30;99.90;;;;;;5027182;28;20104;-77
2024/03/22 04:14:06;;;;;;;53.03;30.17;;;13.30;99.90;;;;;;5028298;28;20025;-75
2024/03/22 04:16:32;;;;;;;55.20;32.33;;;13.30;99.90;;;;;;5027097;28;20473;-76
2024/03/22 04:18:57;;;;;;;54.22;31.30;;;13.30;99.90;;;;;;5028080;28;20074;-77
2024/03/22 04:21:23;;;;;;;54.55;30.08;;;13.30;99.90;;;;;;5027636;28;20025;-77
2024/03/22 04:23:49;;;;;;;56.00;32.33;;;13.20;99.90;;;;;;5028326;28;20017;-76
2024/03/22 04:26:15;;;;;;;52.13;30.70;;;13.20;99.90;;;;;;5027961;28;20498;-77
2024/03/22 04:28:40;;;;;;;54.42;30.83;;;13.20;99.90;;;;;;5027711;28;20437;-77
2024/03/22 04:31:08;;;;;;;60.03;34.35;;;13.30;99.90;;;;;;5026529;28;20450;-76
2024/03/22 04:33:35;;;;;;;55.47;31.67;;;13.20;99.90;;;;;;5028008;28;20044;-77
2024/03/22 04:36:02;;;;;;;55.85;30.08;;;13.30;99.90;;;;;;5026669;28;20474;-77
2024/03/22 04:38:28;;;;;;;49.78;28.85;;;13.30;99.90;;;;;;5027239;28;20517;-76
2024/03/22 04:40:54;;;;;;;52.28;29.63;;;13.20;99.90;;;;;;5027221;28;20038;-77
2024/03/22 04:43:20;;;;;;;49.35;28.27;;;13.20;99.90;;;;;;5027417;28;20222;-77
2024/03/22 04:45:47;;;;;;;57.70;30.55;;;13.20;99.90;;;;;;5026245;28;20109;-77
2024/03/22 04:48:18;;;;;;;50.85;29.25;;;13.30;99.90;;;;;;5027443;28;20136;-77
2024/03/22 04:50:44;;;;;;;50.60;30.92;;;13.20;99.90;;;;;;5027024;28;20120;-76
2024/03/22 04:53:10;;;;;;;49.75;30.50;;;13.30;99.90;;;;;;5027042;28;20029;-77
2024/03/22 04:55:36;;;;;;;53.72;29.23;;;13.20;99.90;;;;;;5026374;28;20025;-77
2024/03/22 04:58:02;;;;;;;50.03;28.52;;;13.30;99.90;;;;;;5026920;28;20059;-77
2024/03/22 05:00:30;;;;;;;50.78;27.98;;;13.30;99.90;;;;;;5027430;28;20097;-76
2024/03/22 05:02:56;;;;;;;55.30;27.65;;;13.30;99.90;;;;;;5026924;28;20100;-77
2024/03/22 05:05:22;;;;;;;55.13;30.35;;;13.40;99.90;;;;;;5027172;28;20101;-77
2024/03/22 05:07:47;;;;;;;49.83;26.55;;;13.40;99.90;;;;;;5026020;28;20378;-76
2024/03/22 05:10:13;;;;;;;49.50;27.00;;;13.40;99.90;;;;;;5026240;28;20064;-76
2024/03/22 05:12:39;;;;;;;55.28;30.67;;;13.30;99.90;;;;;;5026404;28;20033;-76
2024/03/22 05:15:06;;;;;;;46.50;27.23;;;13.30;99.90;;;;;;5025503;28;20026;-77
2024/03/22 05:17:33;;;;;;;52.42;28.80;;;13.30;99.90;;;;;;5027353;28;20029;-77
2024/03/22 05:19:59;;;;;;;47.90;27.15;;;13.20;99.90;;;;;;5026651;28;20029;-77
2024/03/22 05:22:25;;;;;;;52.25;30.52;;;13.20;99.90;;;;;;5026734;28;20030;-77
2024/03/22 05:24:51;;;;;;;43.03;27.23;;;13.20;99.90;;;;;;5026631;28;20144;-76
2024/03/22 05:27:19;;;;;;;46.63;27.25;;;13.20;99.90;;;;;;5026596;28;20144;-77
2024/03/22 05:29:45;;;;;;;41.45;24.75;;;13.20;99.90;;;;;;5026295;28;20093;-76
2024/03/22 05:32:11;;;;;;;48.17;27.15;;;13.10;99.90;;;;;;5024935;28;20142;-76
2024/03/22 05:34:37;;;;;;;46.38;25.90;;;13.10;99.90;;;;;;5026110;28;20041;-76
2024/03/22 05:37:03;;;;;;;39.28;25.35;;;13.00;99.90;;;;;;5026908;28;20072;-76
2024/03/22 05:39:29;;;;;;;43.28;26.38;;;13.10;99.90;;;;;;5026149;28;20506;-76
2024/03/22 05:41:54;;;;;;;46.92;25.38;;;13.10;99.90;;;;;;5026533;28;20113;-77
2024/03/22 05:44:23;;;;;;;39.45;22.58;;;13.20;99.90;;;;;;5024575;28;20025;-76
2024/03/22 05:46:49;;;;;;;43.03;25.02;;;13.10;99.90;;;;;;5026021;28;20025;-77
2024/03/22 05:49:15;;;;;;;42.40;24.02;;;13.10;99.90;;;;;;5025118;28;20035;-77
2024/03/22 05:51:41;;;;;;;42.95;23.95;;;13.10;99.90;;;;;;5026609;28;20052;-76
2024/03/22 05:54:07;;;;;;;42.15;23.05;;;13.00;99.90;;;;;;5026282;28;20061;-76
2024/03/22 05:56:33;;;;;;;36.85;22.25;;;13.10;99.90;;;;;;5026559;28;20097;-76
2024/03/22 05:58:59;;;;;;;39.63;21.75;;;13.00;99.90;;;;;;5024756;28;20033;-77
2024/03/22 06:01:25;;;;;;;37.75;22.15;;;13.10;99.90;;;;;;5024659;28;20079;-76
2024/03/22 06:03:51;;;;;;;37.00;21.55;;;13.00;99.90;;;;;;5025710;28;20025;-76
2024/03/22 06:06:16;;;;;;;44.53;22.83;;;13.00;99.90;;;;;;5026117;28;20497;-77
2024/03/22 06:08:44;;;;;;;34.88;22.05;;;13.10;99.90;;;;;;5025721;28;20083;-77
2024/03/22 06:11:10;;;;;;;39.92;22.33;;;13.20;99.90;;;;;;5025073;28;20017;-77
2024/03/22 06:13:36;;;;;;;39.92;22.02;;;13.20;99.90;;;;;;5026065;28;20512;-77
2024/03/22 06:16:02;;;;;;;38.63;21.80;;;13.10;99.90;;;;;;5026098;28;20084;-77
2024/03/22 06:18:27;;;;;;;37.83;21.73;;;13.10;99.90;;;;;;5026589;28;20025;-77
2024/03/22 06:20:54;;;;;;;36.30;21.30;;;13.10;99.90;;;;;;5025223;28;20021;-77
2024/03/22 06:23:21;;;;;;;37.80;20.73;;;13.10;99.90;;;;;;5024353;28;20482;-77
2024/03/22 06:25:53;;;;;;;31.77;19.50;;;13.10;99.90;;;;;;5026158;28;20018;-77
2024/03/22 06:28:19;;;;;;;37.13;19.92;;;13.10;99.90;;;;;;5025106;28;20025;-77
2024/03/22 06:30:45;;;;;;;29.60;18.08;;;13.10;99.90;;;;;;5023762;28;20021;-77
2024/03/22 06:33:11;;;;;;;30.60;20.33;;;13.10;99.90;;;;;;5024181;28;20030;-76
2024/03/22 06:35:36;;;;;;;28.15;20.33;;;13.10;99.90;;;;;;5025591;28;20021;-76
2024/03/22 06:38:02;;;;;;;30.55;18.15;;;13.10;99.90;;;;;;5024514;28;20030;-77
2024/03/22 06:40:29;;;;;;;30.23;18.33;;;13.10;99.90;;;;;;5024364;28;20049;-76
2024/03/22 06:42:54;;;;;;;31.00;20.58;;;13.20;99.90;;;;;;5025383;28;20547;-77
2024/03/22 06:45:20;;;;;;;27.55;18.55;;;13.20;99.90;;;;;;5025772;28;20025;-77
2024/03/22 06:47:46;;;;;;;33.65;18.50;;;13.40;99.90;;;;;;5025633;28;20025;-77
2024/03/22 06:50:11;;;;;;;28.42;17.35;;;13.30;99.90;;;;;;5024593;28;20482;-76
2024/03/22 06:52:37;;;;;;;29.65;17.45;;;13.40;99.90;;;;;;5025302;28;20716;-76
2024/03/22 06:55:03;;;;;;;31.98;16.98;;;13.40;99.90;;;;;;5025787;28;20536;-77
2024/03/22 06:57:29;;;;;;;28.92;17.25;;;13.50;99.90;;;;;;5024397;28;20029;-77
2024/03/22 06:59:55;;;;;;;30.35;16.88;;;13.50;99.90;;;;;;5025252;28;20022;-77
2024/03/22 07:02:21;;;;;;;33.72;19.65;;;13.50;99.90;;;;;;5025342;28;20676;-77
2024/03/22 07:04:47;;;;;;;28.02;17.77;;;13.50;99.90;;;;;;5025675;28;20025;-77
2024/03/22 07:07:12;;;;;;;28.95;17.92;;;13.50;99.90;;;;;;5025158;28;20120;-76
2024/03/22 07:09:39;;;;;;;29.00;17.63;;;13.50;99.90;;;;;;5025212;28;20486;-77
2024/03/22 07:12:05;;;;;;;25.77;16.73;;;13.50;99.90;;;;;;5023657;28;20040;-76
2024/03/22 07:14:30;;;;;;;28.15;18.15;;;13.40;99.90;;;;;;5025572;28;20372;-76
2024/03/22 07:16:56;;;;;;;27.92;17.95;;;13.30;99.90;;;;;;5025198;28;20029;-76
2024/03/22 07:19:22;;;;;;;29.35;17.67;;;13.40;99.90;;;;;;5025659;28;20423;-76
2024/03/22 07:21:48;;;;;;;27.48;18.33;;;13.30;99.90;;;;;;5024902;28;20021;-74
2024/03/22 07:24:14;;;;;;;29.38;16.83;;;13.40;99.90;;;;;;5023047;28;20061;-77
2024/03/22 07:26:40;;;;;;;29.33;17.17;;;13.30;99.90;;;;;;5025434;28;20121;-77
2024/03/22 07:29:06;;;;;;;27.85;18.08;;;13.40;99.90;;;;;;5024616;28;20152;-75
2024/03/22 07:31:32;;;;;;;29.40;18.15;;;13.40;99.90;;;;;;5023531;28;20022;-78
2024/03/22 07:33:58;;;;;;;35.88;20.13;;;13.40;99.90;;;;;;5024221;28;20056;-75
2024/03/22 07:36:23;;;;;;;30.92;18.58;;;13.40;99.90;;;;;;5024812;28;20110;-75
2024/03/22 07:38:49;;;;;;;31.33;17.90;;;13.40;99.90;;;;;;5025976;28;20045;-75
2024/03/22 07:41:15;;;;;;;28.00;17.40;;;13.50;99.90;;;;;;5024353;28;20037;-75
2024/03/22 07:43:40;;;;;;;28.25;18.95;;;13.40;99.90;;;;;;5025647;28;20014;-78
2024/03/22 07:46:06;;;;;;;30.35;18.45;;;13.40;99.90;;;;;;5022919;28;20543;-76
2024/03/22 07:48:32;;;;;;;27.27;17.30;;;13.40;99.90;;;;;;5024302;28;20104;-76
2024/03/22 07:50:58;;;;;;;31.92;19.58;;;13.50;99.90;;;;;;5024375;28;20502;-77
2024/03/22 07:53:24;;;;;;;24.58;16.90;;;13.60;99.90;;;;;;5028318;28;20486;-80
2024/03/22 07:55:50;;;;;;;26.63;15.80;;;13.70;99.90;;;;;;5026447;28;20029;-77
2024/03/22 07:58:16;;;;;;;26.83;17.88;;;13.60;99.90;;;;;;5027547;28;20021;-76
2024/03/22 08:00:41;;;;;;;25.67;15.70;;;13.70;99.90;;;;;;5028022;28;20028;-77
2024/03/22 08:03:13;;;;;;;21.92;16.30;;;13.80;99.90;;;;;;5027896;28;20064;-77
2024/03/22 08:05:39;;;;;;;24.30;14.93;;;13.80;99.90;;;;;;5027676;28;20029;-77
2024/03/22 08:08:05;;;;;;;20.38;14.82;;;14.00;99.90;;;;;;5027645;28;20026;-76
2024/03/22 08:10:31;;;;;;;20.33;15.32;;;14.10;99.90;;;;;;5026692;28;20017;-76
2024/03/22 08:12:57;;;;;;;27.27;15.98;;;14.20;99.90;;;;;;5027099;28;20037;-77
2024/03/22 08:15:22;;;;;;;23.33;15.02;;;14.20;99.90;;;;;;5025875;28;20033;-77
2024/03/22 08:17:48;;;;;;;20.88;14.43;;;14.20;99.90;;;;;;5028749;28;20075;-77
2024/03/22 08:20:14;;;;;;;22.48;14.50;;;14.30;99.90;;;;;;5027985;28;20490;-77
2024/03/22 08:22:39;;;;;;;21.77;14.40;;;14.30;99.90;;;;;;5024942;28;20025;-77
2024/03/22 08:25:07;;;;;;;19.25;12.93;;;14.40;99.90;;;;;;5026765;28;20053;-77
2024/03/22 08:27:34;;;;;;;20.52;14.98;;;14.50;99.90;;;;;;5025813;28;20025;-78
2024/03/22 08:30:00;;;;;;;22.00;15.27;;;14.40;99.90;;;;;;5026457;28;20053;-76
2024/03/22 08:32:26;;;;;;;22.35;15.15;;;14.40;99.90;;;;;;5024226;28;20461;-77
2024/03/22 08:34:51;;;;;;;22.88;15.13;;;14.40;99.90;;;;;;5025979;28;20021;-77
2024/03/22 08:37:17;;;;;;;25.15;15.50;;;14.30;99.90;;;;;;5026695;28;20107;-79
2024/03/22 08:39:43;;;;;;;21.63;14.82;;;14.40;99.90;;;;;;5026540;28;20080;-79
2024/03/22 08:42:09;;;;;;;20.67;14.50;;;14.50;99.90;;;;;;5025741;28;20036;-80
2024/03/22 08:44:35;;;;;;;22.02;15.60;;;14.50;99.90;;;;;;5026723;28;20056;-79
2024/03/22 08:47:01;;;;;;;19.85;14.40;;;14.70;99.90;;;;;;5024251;28;20034;-80
2024/03/22 08:49:27;;;;;;;21.23;13.75;;;14.70;99.90;;;;;;5026276;28;20045;-80
2024/03/22 08:51:53;;;;;;;22.58;13.25;;;14.60;99.90;;;;;;5027217;28;20088;-80
2024/03/22 08:54:18;;;;;;;19.27;12.82;;;14.50;99.90;;;;;;5025715;28;20324;-79
2024/03/22 08:56:44;;;;;;;20.67;14.48;;;14.40;99.90;;;;;;5026959;28;20026;-78
2024/03/22 08:59:10;;;;;;;21.05;13.63;;;14.40;99.90;;;;;;5026864;28;20433;-80
2024/03/22 09:01:36;;;;;;;18.95;13.25;;;14.40;99.90;;;;;;5024829;28;20100;-79
2024/03/22 09:04:03;;;;;;;17.77;12.13;;;14.40;99.90;;;;;;5026707;28;20121;-83
2024/03/22 09:06:29;;;;;;;23.55;13.15;;;14.40;99.90;;;;;;5024711;28;20018;-81
2024/03/22 09:08:57;;;;;;;18.05;11.93;;;14.40;99.90;;;;;;5025206;28;20025;-82
2024/03/22 09:11:26;;;;;;;22.48;13.45;;;14.40;99.90;;;;;;5024450;28;20035;-81
2024/03/22 09:13:53;;;;;;;16.85;11.90;;;14.40;99.90;;;;;;5025042;28;20032;-82
2024/03/22 09:16:20;;;;;;;14.95;11.40;;;14.50;99.90;;;;;;5025803;28;20068;-81
2024/03/22 09:18:46;;;;;;;16.15;12.40;;;14.60;99.90;;;;;;5025726;28;20088;-81
2024/03/22 09:21:11;;;;;;;19.00;11.32;;;14.60;99.90;;;;;;5025477;28;20033;-80
2024/03/22 09:23:37;;;;;;;16.90;10.90;;;14.50;99.90;;;;;;5026680;28;20560;-82
2024/03/22 09:26:03;;;;;;;14.05;11.05;;;14.50;99.90;;;;;;5024573;28;20057;-81
2024/03/22 09:28:29;;;;;;;15.95;10.75;;;14.50;99.90;;;;;;5025666;28;20030;-80
2024/03/22 09:30:54;;;;;;;17.35;11.38;;;14.60;99.90;;;;;;5025229;28;20501;-81
2024/03/22 09:33:20;;;;;;;13.88;10.25;;;14.50;99.90;;;;;;5025849;28;20041;-80
2024/03/22 09:35:46;;;;;;;14.70;10.57;;;14.50;99.90;;;;;;5026307;28;20431;-80
2024/03/22 09:38:11;;;;;;;17.23;10.73;;;14.50;99.90;;;;;;5026553;28;20021;-81
2024/03/22 09:40:41;;;;;;;14.63;9.15;;;14.60;99.90;;;;;;5024208;28;20040;-82
2024/03/22 09:43:09;;;;;;;13.93;9.65;;;14.70;99.90;;;;;;5023274;28;20022;-80
2024/03/22 09:45:35;;;;;;;14.63;9.45;;;14.60;99.90;;;;;;5024171;28;20029;-79
2024/03/22 09:48:01;;;;;;;14.65;9.95;;;14.80;99.90;;;;;;5025016;28;20107;-81
2024/03/22 09:50:29;;;;;;;12.27;8.40;;;14.80;99.90;;;;;;5025670;28;20033;-82
2024/03/22 09:52:56;;;;;;;14.10;8.50;;;14.90;99.90;;;;;;5024456;28;20033;-81
2024/03/22 09:55:25;;;;;;;16.67;9.88;;;14.90;99.90;;;;;;5025812;28;20044;-81
2024/03/22 09:57:53;;;;;;;13.60;9.10;;;15.00;99.90;;;;;;5023398;28;20070;-81
2024/03/22 10:00:20;;;;;;;13.88;10.02;;;14.90;99.90;;;;;;5024628;28;20067;-81
2024/03/22 10:02:49;;;;;;;13.55;10.02;;;14.80;99.90;;;;;;5024201;28;20025;-81
2024/03/22 10:05:17;;;;;;;17.17;10.13;;;14.80;99.90;;;;;;5024040;28;20037;-81
2024/03/22 10:07:43;;;;;;;15.55;10.45;;;14.80;99.90;;;;;;5025935;28;20014;-82
2024/03/22 10:10:10;;;;;;;15.82;10.30;;;14.70;99.90;;;;;;5024308;28;20425;-81
2024/03/22 10:12:36;;;;;;;14.57;10.48;;;14.60;99.90;;;;;;5024925;28;20033;-82
2024/03/22 10:15:02;;;;;;;13.95;10.55;;;14.70;99.90;;;;;;5024387;28;20026;-81
2024/03/22 10:17:29;;;;;;;15.60;10.93;;;14.70;99.90;;;;;;5023619;28;20026;-81
2024/03/22 10:19:55;;;;;;;16.02;11.77;;;14.70;99.90;;;;;;5024216;28;20382;-80
2024/03/22 10:22:20;;;;;;;19.13;10.75;;;14.60;99.90;;;;;;5023021;28;20025;-80
2024/03/22 10:24:46;;;;;;;13.93;10.70;;;14.70;99.90;;;;;;5024040;28;20534;-80
2024/03/22 10:27:13;;;;;;;15.20;9.90;;;14.80;99.90;;;;;;5023274;28;20021;-80
2024/03/22 10:29:39;;;;;;;14.60;9.75;;;14.70;99.90;;;;;;5023142;28;20556;-80
2024/03/22 10:32:06;;;;;;;15.98;9.95;;;14.80;99.90;;;;;;5024572;28;20041;-80
2024/03/22 10:34:33;;;;;;;12.85;9.02;;;14.70;99.90;;;;;;5023858;28;20034;-80
2024/03/22 10:37:01;;;;;;;11.85;9.02;;;14.70;99.90;;;;;;5023506;28;20022;-81
2024/03/22 10:39:28;;;;;;;14.02;9.88;;;14.80;99.90;;;;;;5024235;28;20079;-80
2024/03/22 10:41:54;;;;;;;14.80;8.60;;;14.70;99.90;;;;;;5025334;28;20029;-80
2024/03/22 10:44:20;;;;;;;14.38;9.48;;;14.60;99.90;;;;;;5025268;28;20112;-79
2024/03/22 10:46:48;;;;;;;15.52;10.50;;;14.60;99.90;;;;;;5023148;28;20036;-81
2024/03/22 10:49:19;;;;;;;12.95;9.90;;;14.60;99.90;;;;;;5023576;28;20021;-80
2024/03/22 10:51:54;;;;;;;12.82;9.68;;;14.50;99.90;;;;;;5024704;28;20021;-80
2024/03/22 10:54:24;;;;;;;12.27;9.75;;;14.50;99.90;;;;;;5025502;28;20021;-81
2024/03/22 10:56:51;;;;;;;13.55;10.82;;;14.60;99.90;;;;;;5025376;28;20051;-81
2024/03/22 10:59:22;;;;;;;17.20;10.30;;;14.70;99.90;;;;;;5023911;28;20017;-79
2024/03/22 11:01:49;;;;;;;15.82;9.63;;;14.70;99.90;;;;;;5025074;28;20025;-81
2024/03/22 11:04:22;;;;;;;14.80;9.82;;;14.70;99.90;;;;;;5024933;28;20025;-77
2024/03/22 11:06:50;;;;;;;14.82;10.00;;;14.60;99.90;;;;;;5024522;28;20032;-77
2024/03/22 11:09:22;;;;;;;15.07;9.90;;;14.60;99.90;;;;;;5025391;28;20034;-83
2024/03/22 11:11:51;;;;;;;15.00;9.80;;;14.60;99.90;;;;;;5023910;28;20025;-82
2024/03/22 11:14:17;;;;;;;14.98;10.70;;;14.50;99.90;;;;;;5023447;28;20040;-81
2024/03/22 11:16:47;;;;;;;14.98;10.05;;;14.50;99.90;;;;;;5023181;28;20029;-82
2024/03/22 11:19:12;;;;;;;15.10;10.07;;;14.40;99.90;;;;;;5025095;28;20490;-82
2024/03/22 11:21:39;;;;;;;14.48;10.13;;;14.50;99.90;;;;;;5024155;28;20021;-81
2024/03/22 11:24:05;;;;;;;18.88;11.07;;;14.40;99.90;;;;;;5025193;28;20030;-81
2024/03/22 11:26:32;;;;;;;21.35;11.40;;;14.40;99.90;;;;;;5023397;28;20025;-81
2024/03/22 11:28:58;;;;;;;16.67;10.70;;;14.40;99.90;;;;;;5028073;28;20032;-81
2024/03/22 11:31:27;;;;;;;16.98;11.18;;;14.30;99.90;;;;;;5028085;28;20049;-79
2024/03/22 11:33:56;;;;;;;19.75;10.90;;;14.40;99.90;;;;;;5028287;28;20072;-79
2024/03/22 11:36:23;;;;;;;17.60;10.60;;;14.40;99.90;;;;;;5052645;28;20025;-79
2024/03/22 11:38:50;;;;;;;17.70;11.85;;;14.40;99.90;;;;;;5029063;28;20057;-78
2024/03/22 11:41:19;;;;;;;16.52;11.60;;;14.40;99.90;;;;;;5028822;28;20099;-78
2024/03/22 11:43:47;;;;;;;18.67;11.88;;;14.40;99.90;;;;;;5028530;28;20022;-78
2024/03/22 11:46:15;;;;;;;19.92;12.82;;;14.50;99.90;;;;;;5028054;28;20025;-78
2024/03/22 11:48:41;;;;;;;17.40;12.27;;;14.40;99.90;;;;;;5028381;28;20021;-78
2024/03/22 11:51:08;;;;;;;23.75;13.52;;;14.40;99.90;;;;;;5028074;28;20080;-78
2024/03/22 11:53:35;;;;;;;17.38;11.35;;;14.40;99.90;;;;;;5026682;28;20068;-78
2024/03/22 11:56:03;;;;;;;19.00;11.30;;;14.60;99.90;;;;;;5026019;28;20053;-78
2024/03/22 11:58:29;;;;;;;16.33;12.35;;;14.50;99.90;;;;;;5028402;28;20030;-77
2024/03/22 12:00:57;;;;;;;18.95;13.25;;;14.40;99.90;;;;;;5028462;28;20030;-78
2024/03/22 12:03:23;;;;;;;20.75;12.23;;;14.30;99.90;;;;;;5028223;28;20025;-78
2024/03/22 12:05:50;;;;;;;17.15;11.52;;;14.40;99.90;;;;;;5027312;28;20547;-78
2024/03/22 12:08:20;;;;;;;20.92;13.07;;;14.40;99.90;;;;;;5028675;28;20025;-79
2024/03/22 12:10:45;;;;;;;17.35;12.57;;;14.40;99.90;;;;;;5026161;28;20028;-78
2024/03/22 12:13:11;;;;;;;20.85;13.00;;;14.30;99.90;;;;;;5028281;28;20041;-79
2024/03/22 12:15:37;;;;;;;21.13;12.27;;;14.40;99.90;;;;;;5027682;28;20072;-78
2024/03/22 12:18:03;;;;;;;20.42;12.63;;;14.40;99.90;;;;;;5027594;28;20429;-78
2024/03/22 12:20:29;;;;;;;18.33;12.82;;;14.30;99.90;;;;;;5027529;28;20022;-78
2024/03/22 12:22:55;;;;;;;15.77;11.80;;;14.30;99.90;;;;;;5027047;28;20028;-78
2024/03/22 12:25:21;;;;;;;17.13;12.90;;;14.40;99.90;;;;;;5026214;28;20116;-78